Time;durP1;ratioP1;P1;durP2;ratioP2;P2;SDS_P1;SDS_P2;PMS_P1;PMS_P2;Temp;Humidity;BMP_temperature;BMP_pressure;BME280_temperature;BME280_humidity;BME280_pressure;Samples;Min_cycle;Max_cycle;Signal;HPM_P1;HPM_P2
2022/10/29 00:00:55;;;;;;;22.42;9.50;;;17.80;99.90;;;;;;5013489;28;20109;-75
2022/10/29 00:03:22;;;;;;;20.83;10.75;;;17.80;99.90;;;;;;5004008;28;20105;-74
2022/10/29 00:05:58;;;;;;;34.47;11.40;;;17.70;99.90;;;;;;5013889;28;20033;-74
2022/10/29 00:08:25;;;;;;;20.83;8.88;;;17.70;99.90;;;;;;5013471;28;20026;-74
2022/10/29 00:10:51;;;;;;;16.15;8.15;;;17.70;99.90;;;;;;5015644;28;20033;-74
2022/10/29 00:13:17;;;;;;;31.08;10.13;;;17.70;99.90;;;;;;5029437;28;20042;-73
2022/10/29 00:15:42;;;;;;;29.20;9.32;;;17.70;99.90;;;;;;5031874;28;20033;-74
2022/10/29 00:18:08;;;;;;;24.45;9.75;;;17.70;99.90;;;;;;5008240;28;20114;-74
2022/10/29 00:20:34;;;;;;;20.73;9.07;;;17.70;99.90;;;;;;5030610;28;20030;-75
2022/10/29 00:23:00;;;;;;;22.92;9.18;;;17.70;99.90;;;;;;5009108;28;20517;-75
2022/10/29 00:25:25;;;;;;;40.25;10.65;;;17.60;99.90;;;;;;5016714;28;20497;-74
2022/10/29 00:27:51;;;;;;;25.38;9.55;;;17.70;99.90;;;;;;5009205;28;20073;-75
2022/10/29 00:30:17;;;;;;;27.05;10.32;;;17.60;99.90;;;;;;5015422;28;20034;-74
2022/10/29 00:32:43;;;;;;;27.30;9.25;;;17.60;99.90;;;;;;5010353;28;20097;-74
2022/10/29 00:35:09;;;;;;;27.65;9.48;;;17.60;99.90;;;;;;5020189;28;20445;-75
2022/10/29 00:37:35;;;;;;;26.67;9.80;;;17.60;99.90;;;;;;5013826;28;20130;-74
2022/10/29 00:40:01;;;;;;;22.63;9.35;;;17.60;99.90;;;;;;5020374;28;20034;-75
2022/10/29 00:42:26;;;;;;;20.50;10.18;;;17.50;99.90;;;;;;5017696;28;20022;-75
2022/10/29 00:44:52;;;;;;;26.55;9.82;;;17.50;99.90;;;;;;5034110;28;20112;-75
2022/10/29 00:47:26;;;;;;;27.85;10.75;;;17.50;99.90;;;;;;5018484;28;20027;-74
2022/10/29 00:50:06;;;;;;;32.50;10.57;;;17.60;99.90;;;;;;5019924;28;20037;-75
2022/10/29 00:52:35;;;;;;;24.27;8.80;;;17.60;99.90;;;;;;5012564;28;20109;-76
2022/10/29 00:55:04;;;;;;;24.55;8.75;;;17.60;99.90;;;;;;5018819;28;20048;-74
2022/10/29 00:57:38;;;;;;;28.92;8.90;;;17.60;99.90;;;;;;5018535;28;20053;-74
2022/10/29 01:00:05;;;;;;;31.77;9.85;;;17.60;99.90;;;;;;5015379;28;20118;-75
2022/10/29 01:02:34;;;;;;;35.05;10.20;;;17.60;99.90;;;;;;5014305;28;20021;-76
2022/10/29 01:05:03;;;;;;;31.38;9.68;;;17.50;99.90;;;;;;5025811;28;20034;-75
2022/10/29 01:07:29;;;;;;;27.13;9.95;;;17.50;99.90;;;;;;5018092;28;20105;-74
2022/10/29 01:09:55;;;;;;;24.13;9.85;;;17.50;99.90;;;;;;5019088;28;20029;-75
2022/10/29 01:12:31;;;;;;;30.83;10.25;;;17.50;99.90;;;;;;5017206;28;20053;-75
2022/10/29 01:15:12;;;;;;;31.02;9.80;;;17.50;99.90;;;;;;5027982;28;20029;-75
2022/10/29 01:17:40;;;;;;;16.75;10.38;;;17.50;99.90;;;;;;5015505;28;20029;-75
2022/10/29 01:20:35;;;;;;;22.70;10.05;;;17.50;99.90;;;;;;5029908;28;20533;-74
2022/10/29 01:23:04;;;;;;;20.65;9.05;;;17.50;99.90;;;;;;5013741;28;20022;-74
2022/10/29 01:25:52;;;;;;;28.50;10.77;;;17.50;99.90;;;;;;5019520;28;20037;-75
2022/10/29 01:28:45;;;;;;;30.70;9.65;;;17.40;99.90;;;;;;5011065;28;20485;-75
2022/10/29 01:31:20;;;;;;;28.77;10.63;;;17.50;99.90;;;;;;5018307;28;20034;-75
2022/10/29 01:33:51;;;;;;;26.98;10.85;;;17.50;99.90;;;;;;5012496;28;20030;-75
2022/10/29 01:36:53;;;;;;;28.30;9.52;;;17.50;99.90;;;;;;5019382;28;20049;-76
2022/10/29 01:39:54;;;;;;;25.08;9.88;;;17.50;99.90;;;;;;5016299;28;20556;-75
2022/10/29 01:42:22;;;;;;;29.45;10.30;;;17.50;99.90;;;;;;5019449;28;20022;-75
2022/10/29 01:45:25;;;;;;;26.38;11.00;;;17.40;99.90;;;;;;5034409;28;20026;-75
2022/10/29 01:48:03;;;;;;;22.50;9.57;;;17.50;99.90;;;;;;5011341;28;20048;-75
2022/10/29 01:50:30;;;;;;;28.05;9.98;;;17.50;99.90;;;;;;5033855;28;20056;-75
2022/10/29 01:52:56;;;;;;;29.42;10.05;;;17.50;99.90;;;;;;5012692;28;20436;-75
2022/10/29 01:55:28;;;;;;;36.08;9.65;;;17.50;99.90;;;;;;5013367;28;20518;-76
2022/10/29 01:57:54;;;;;;;24.88;10.00;;;17.50;99.90;;;;;;5017066;28;20109;-76
2022/10/29 02:00:21;;;;;;;27.15;9.10;;;17.50;99.90;;;;;;5015676;28;20022;-75
2022/10/29 02:03:34;;;;;;;20.10;9.82;;;17.50;99.90;;;;;;5011358;28;20347;-75
2022/10/29 02:06:31;;;;;;;24.85;10.52;;;17.50;99.90;;;;;;5017304;28;20046;-74
2022/10/29 02:09:19;;;;;;;29.85;8.85;;;17.40;99.90;;;;;;5017422;28;20174;-76
2022/10/29 02:12:12;;;;;;;19.88;9.85;;;17.40;99.90;;;;;;5016806;28;20057;-75
2022/10/29 02:14:45;;;;;;;22.33;9.73;;;17.40;99.90;;;;;;5022323;28;20097;-75
2022/10/29 02:17:10;;;;;;;33.40;10.98;;;17.40;99.90;;;;;;5013051;28;20026;-75
2022/10/29 02:19:36;;;;;;;26.08;10.80;;;17.40;99.90;;;;;;5008497;28;20114;-74
2022/10/29 02:22:02;;;;;;;31.02;9.30;;;17.40;99.90;;;;;;5015300;28;20018;-75
2022/10/29 02:24:28;;;;;;;29.42;9.05;;;17.40;99.90;;;;;;5031268;28;20054;-75
2022/10/29 02:26:54;;;;;;;25.17;9.27;;;17.30;99.90;;;;;;5015724;28;20390;-75
2022/10/29 02:29:19;;;;;;;27.20;8.57;;;17.30;99.90;;;;;;5029858;28;20057;-74
2022/10/29 02:31:45;;;;;;;28.45;9.52;;;17.30;99.90;;;;;;5016327;28;20025;-75
2022/10/29 02:34:11;;;;;;;25.52;9.10;;;17.30;99.90;;;;;;5012267;28;20508;-75
2022/10/29 02:36:37;;;;;;;24.77;9.25;;;17.30;99.90;;;;;;5016231;28;20018;-75
2022/10/29 02:39:03;;;;;;;29.92;9.40;;;17.20;99.90;;;;;;5012667;28;20096;-75
2022/10/29 02:41:29;;;;;;;22.58;10.45;;;17.20;99.90;;;;;;5015376;28;20064;-74
2022/10/29 02:43:54;;;;;;;24.08;10.65;;;17.20;99.90;;;;;;5013308;28;20795;-76
2022/10/29 02:46:22;;;;;;;25.00;10.63;;;17.30;99.90;;;;;;5015942;28;20075;-75
2022/10/29 02:48:49;;;;;;;29.77;9.80;;;17.20;99.90;;;;;;5014858;28;20321;-76
2022/10/29 02:51:15;;;;;;;29.95;10.30;;;17.20;99.90;;;;;;5017740;28;20073;-74
2022/10/29 02:53:42;;;;;;;21.55;10.73;;;17.20;99.90;;;;;;5010045;28;20029;-75
2022/10/29 02:56:08;;;;;;;28.05;9.35;;;17.20;99.90;;;;;;5014509;28;20018;-75
2022/10/29 02:58:35;;;;;;;16.77;9.02;;;17.30;99.90;;;;;;5015206;28;20117;-74
2022/10/29 03:01:00;;;;;;;23.15;9.80;;;17.20;99.90;;;;;;5014757;28;20450;-74
2022/10/29 03:03:27;;;;;;;25.95;10.32;;;17.20;99.90;;;;;;5004615;28;20029;-75
2022/10/29 03:05:52;;;;;;;25.33;11.23;;;17.10;99.90;;;;;;5013186;28;20111;-75
2022/10/29 03:08:18;;;;;;;29.10;11.10;;;17.10;99.90;;;;;;5012909;28;20037;-75
2022/10/29 03:10:44;;;;;;;18.23;7.75;;;17.10;99.90;;;;;;5031188;28;20025;-75
2022/10/29 03:13:10;;;;;;;21.80;8.95;;;17.10;99.90;;;;;;5030580;28;20060;-74
2022/10/29 03:15:37;;;;;;;20.45;9.40;;;17.20;99.90;;;;;;5017088;28;20049;-74
2022/10/29 03:18:03;;;;;;;21.42;9.55;;;17.20;99.90;;;;;;5009740;28;20073;-76
2022/10/29 03:20:29;;;;;;;27.27;10.15;;;17.10;99.90;;;;;;5014645;28;20162;-75
2022/10/29 03:22:55;;;;;;;21.00;10.20;;;17.10;99.90;;;;;;5010866;28;20351;-74
2022/10/29 03:25:21;;;;;;;25.02;10.75;;;17.10;99.90;;;;;;5030235;28;20033;-76
2022/10/29 03:27:47;;;;;;;17.05;8.35;;;17.10;99.90;;;;;;5012153;28;20022;-74
2022/10/29 03:30:15;;;;;;;22.98;8.55;;;17.10;99.90;;;;;;5032321;28;20026;-75
2022/10/29 03:32:42;;;;;;;24.17;9.40;;;17.10;99.90;;;;;;5012862;28;20025;-75
2022/10/29 03:35:09;;;;;;;22.33;8.68;;;17.20;99.90;;;;;;5014789;28;20030;-76
2022/10/29 03:37:36;;;;;;;22.35;9.75;;;17.10;99.90;;;;;;5010263;28;20057;-74
2022/10/29 03:40:02;;;;;;;28.65;9.75;;;17.10;99.90;;;;;;5008930;28;20117;-75
2022/10/29 03:42:30;;;;;;;24.42;8.75;;;17.10;99.90;;;;;;5010703;28;20452;-74
2022/10/29 03:45:00;;;;;;;36.75;9.45;;;17.10;99.90;;;;;;5015442;28;20026;-76
2022/10/29 03:47:26;;;;;;;30.10;10.93;;;17.10;99.90;;;;;;5014620;28;20102;-75
2022/10/29 03:49:53;;;;;;;31.23;9.55;;;17.10;99.90;;;;;;5015675;28;20034;-73
2022/10/29 03:52:18;;;;;;;27.20;9.32;;;17.10;99.90;;;;;;5011094;28;20097;-75
2022/10/29 03:54:44;;;;;;;26.58;9.02;;;17.10;99.90;;;;;;5031668;28;20054;-75
2022/10/29 03:57:10;;;;;;;21.85;9.70;;;17.10;99.90;;;;;;5027448;28;20031;-74
2022/10/29 03:59:36;;;;;;;20.13;8.77;;;17.10;99.90;;;;;;5011403;28;20026;-76
2022/10/29 04:02:02;;;;;;;24.85;8.95;;;17.10;99.90;;;;;;5013259;28;20022;-75
2022/10/29 04:04:28;;;;;;;30.00;9.02;;;17.10;99.90;;;;;;5015553;28;20022;-74
2022/10/29 04:06:54;;;;;;;22.65;9.02;;;17.10;99.90;;;;;;5013008;28;20410;-75
2022/10/29 04:09:19;;;;;;;28.10;8.90;;;17.10;99.90;;;;;;5018957;28;20037;-74
2022/10/29 04:11:45;;;;;;;25.58;10.40;;;17.10;99.90;;;;;;5016988;28;20097;-74
2022/10/29 04:14:11;;;;;;;24.02;9.57;;;17.10;99.90;;;;;;5012665;28;20022;-74
2022/10/29 04:16:37;;;;;;;28.75;10.30;;;17.10;99.90;;;;;;5019052;28;20076;-76
2022/10/29 04:19:03;;;;;;;26.88;9.05;;;17.10;99.90;;;;;;5013486;28;20057;-75
2022/10/29 04:21:29;;;;;;;20.13;8.57;;;17.10;99.90;;;;;;5018455;28;20556;-75
2022/10/29 04:23:54;;;;;;;23.42;10.45;;;17.10;99.90;;;;;;5016282;28;20034;-76
2022/10/29 04:26:20;;;;;;;22.48;9.38;;;17.10;99.90;;;;;;5035388;28;20026;-75
2022/10/29 04:28:50;;;;;;;24.70;9.30;;;17.00;99.90;;;;;;5014709;28;20320;-74
2022/10/29 04:31:17;;;;;;;25.50;8.80;;;17.00;99.90;;;;;;5019329;28;20088;-74
2022/10/29 04:33:43;;;;;;;24.25;10.52;;;17.00;99.90;;;;;;5013558;28;20276;-76
2022/10/29 04:36:09;;;;;;;27.42;9.48;;;17.00;99.90;;;;;;5018892;28;20033;-74
2022/10/29 04:38:35;;;;;;;28.55;8.23;;;17.00;99.90;;;;;;5014053;28;20474;-75
2022/10/29 04:41:01;;;;;;;28.88;9.60;;;17.00;99.90;;;;;;5020083;28;20136;-76
2022/10/29 04:43:28;;;;;;;22.17;9.23;;;17.00;99.90;;;;;;5013801;28;20062;-76
2022/10/29 04:45:55;;;;;;;20.45;9.65;;;17.00;99.90;;;;;;5020277;28;20030;-76
2022/10/29 04:48:23;;;;;;;30.52;11.07;;;17.00;99.90;;;;;;5013686;28;20026;-77
2022/10/29 04:50:49;;;;;;;22.98;9.32;;;17.00;99.90;;;;;;5020040;28;20121;-77
2022/10/29 04:53:15;;;;;;;22.88;8.85;;;17.10;99.90;;;;;;5014732;28;20014;-76
2022/10/29 04:55:42;;;;;;;30.98;10.75;;;17.00;99.90;;;;;;5016475;28;20037;-76
2022/10/29 04:58:12;;;;;;;24.42;9.30;;;17.00;99.90;;;;;;5014525;28;20025;-75
2022/10/29 05:00:42;;;;;;;24.00;9.63;;;17.00;99.90;;;;;;5017470;28;20486;-75
2022/10/29 05:03:08;;;;;;;27.40;8.95;;;17.00;99.90;;;;;;5014708;28;20034;-75
2022/10/29 05:05:36;;;;;;;26.05;10.48;;;17.00;99.90;;;;;;5014520;28;20029;-75
2022/10/29 05:08:04;;;;;;;32.58;10.50;;;17.00;99.90;;;;;;5018018;28;20080;-75
2022/10/29 05:10:32;;;;;;;25.40;9.38;;;17.00;99.90;;;;;;5018585;28;20025;-76
2022/10/29 05:13:04;;;;;;;29.15;10.27;;;17.00;99.90;;;;;;5012215;28;20126;-75
2022/10/29 05:15:30;;;;;;;32.00;10.27;;;17.00;99.90;;;;;;5015783;28;20026;-76
2022/10/29 05:17:56;;;;;;;19.88;10.10;;;16.90;99.90;;;;;;5010842;28;20439;-75
2022/10/29 05:20:23;;;;;;;21.20;7.97;;;16.90;99.90;;;;;;5030055;28;20030;-76
2022/10/29 05:22:49;;;;;;;28.63;9.48;;;16.90;99.90;;;;;;5012259;28;20534;-76
2022/10/29 05:25:15;;;;;;;25.48;9.70;;;16.90;99.90;;;;;;5014058;28;20406;-76
2022/10/29 05:27:41;;;;;;;21.67;8.65;;;16.80;99.90;;;;;;5011172;28;20390;-75
2022/10/29 05:30:08;;;;;;;24.08;10.70;;;16.90;99.90;;;;;;5016217;28;20062;-75
2022/10/29 05:32:34;;;;;;;23.20;10.50;;;16.80;99.90;;;;;;5017941;28;20022;-75
2022/10/29 05:34:59;;;;;;;21.88;10.23;;;16.90;99.90;;;;;;5003657;28;20497;-75
2022/10/29 05:37:26;;;;;;;26.27;9.63;;;16.90;99.90;;;;;;5011747;28;20022;-75
2022/10/29 05:39:53;;;;;;;22.20;9.75;;;16.90;99.90;;;;;;5018049;28;20022;-75
2022/10/29 05:42:19;;;;;;;32.90;11.10;;;16.90;99.90;;;;;;5012466;28;20096;-74
2022/10/29 05:44:44;;;;;;;23.20;9.15;;;16.80;99.90;;;;;;5017469;28;20030;-75
2022/10/29 05:47:10;;;;;;;28.17;10.32;;;16.90;99.90;;;;;;5013592;28;20022;-74
2022/10/29 05:49:36;;;;;;;26.85;10.73;;;16.90;99.90;;;;;;5015877;28;20030;-74
2022/10/29 05:52:02;;;;;;;23.05;9.70;;;16.80;99.90;;;;;;5014745;28;20022;-74
2022/10/29 05:54:28;;;;;;;21.95;9.75;;;16.90;99.90;;;;;;5009387;28;20025;-74
2022/10/29 05:56:53;;;;;;;24.95;10.15;;;16.90;99.90;;;;;;5015771;28;20065;-75
2022/10/29 05:59:19;;;;;;;27.20;10.00;;;16.90;99.90;;;;;;5028710;28;20522;-74
2022/10/29 06:01:45;;;;;;;32.30;10.07;;;16.90;99.90;;;;;;5013304;28;20040;-76
2022/10/29 06:04:11;;;;;;;23.20;9.15;;;16.90;99.90;;;;;;5013910;28;20026;-75
2022/10/29 06:06:37;;;;;;;26.08;10.02;;;16.90;99.90;;;;;;5015785;28;20022;-75
2022/10/29 06:09:03;;;;;;;27.33;9.43;;;16.90;99.90;;;;;;5013787;28;20026;-76
2022/10/29 06:11:29;;;;;;;30.23;9.95;;;16.90;99.90;;;;;;5012437;28;20029;-75
2022/10/29 06:13:55;;;;;;;25.70;10.18;;;16.90;99.90;;;;;;4961363;28;1335525;-74
2022/10/29 06:16:21;;;;;;;23.67;10.25;;;16.90;99.90;;;;;;5018297;28;20033;-74
2022/10/29 06:18:48;;;;;;;24.55;8.80;;;16.80;99.90;;;;;;5010432;28;20022;-73
2022/10/29 06:21:14;;;;;;;31.85;10.80;;;16.80;99.90;;;;;;5018797;28;20049;-75
2022/10/29 06:23:39;;;;;;;25.85;11.05;;;16.80;99.90;;;;;;5016392;28;20537;-75
2022/10/29 06:26:05;;;;;;;24.10;9.77;;;16.80;99.90;;;;;;5017207;28;20117;-74
2022/10/29 06:28:31;;;;;;;28.95;10.63;;;16.80;99.90;;;;;;5011047;28;20390;-75
2022/10/29 06:30:57;;;;;;;31.40;10.68;;;16.80;99.90;;;;;;5015117;28;20026;-75
2022/10/29 06:33:23;;;;;;;24.20;9.95;;;16.80;99.90;;;;;;5010262;28;20018;-76
2022/10/29 06:35:49;;;;;;;23.38;9.63;;;16.80;99.90;;;;;;5033508;28;20026;-76
2022/10/29 06:38:14;;;;;;;24.10;10.23;;;16.80;99.90;;;;;;5011691;28;20049;-76
2022/10/29 06:40:41;;;;;;;27.60;10.25;;;16.80;99.90;;;;;;5013481;28;20062;-76
2022/10/29 06:43:10;;;;;;;25.40;9.75;;;16.80;99.90;;;;;;5009551;28;20080;-75
2022/10/29 06:45:36;;;;;;;20.88;9.73;;;16.80;99.90;;;;;;5015420;28;20026;-75
2022/10/29 06:48:04;;;;;;;39.50;10.30;;;16.80;99.90;;;;;;5009642;28;20026;-75
2022/10/29 06:50:30;;;;;;;24.48;10.32;;;16.80;99.90;;;;;;5021637;28;20440;-75
2022/10/29 06:53:06;;;;;;;20.27;10.30;;;16.80;99.90;;;;;;5020092;28;20036;-76
2022/10/29 06:55:33;;;;;;;35.78;9.73;;;16.90;99.90;;;;;;5022680;28;20028;-76
2022/10/29 06:58:02;;;;;;;29.52;10.73;;;16.90;99.90;;;;;;5017852;28;20022;-76
2022/10/29 07:00:29;;;;;;;17.00;8.33;;;16.90;99.90;;;;;;5027058;28;20025;-75
2022/10/29 07:02:55;;;;;;;23.45;9.60;;;16.90;99.90;;;;;;5010201;28;20114;-77
2022/10/29 07:05:23;;;;;;;23.85;9.95;;;17.00;99.90;;;;;;5025247;28;20022;-74
2022/10/29 07:07:53;;;;;;;19.10;8.93;;;17.00;99.90;;;;;;5015057;28;20022;-76
2022/10/29 07:10:18;;;;;;;28.65;10.50;;;17.00;99.90;;;;;;5022953;28;20021;-75
2022/10/29 07:12:44;;;;;;;23.55;10.18;;;17.10;99.90;;;;;;5013899;28;20202;-75
2022/10/29 07:15:11;;;;;;;19.15;8.95;;;17.10;99.90;;;;;;5016437;28;20037;-76
2022/10/29 07:17:38;;;;;;;22.65;8.43;;;17.10;99.90;;;;;;5004694;28;20073;-75
2022/10/29 07:20:06;;;;;;;22.92;8.70;;;17.10;99.90;;;;;;5001495;28;20030;-75
2022/10/29 07:22:32;;;;;;;28.02;10.18;;;17.10;99.90;;;;;;5013280;28;20013;-74
2022/10/29 07:24:58;;;;;;;26.70;10.05;;;17.20;99.90;;;;;;5015253;28;20025;-74
2022/10/29 07:27:24;;;;;;;22.35;9.38;;;17.20;99.90;;;;;;5020099;28;20029;-74
2022/10/29 07:29:50;;;;;;;21.75;9.13;;;17.30;99.90;;;;;;5021600;28;20029;-73
2022/10/29 07:32:16;;;;;;;28.10;9.63;;;17.30;99.90;;;;;;5016468;28;20023;-74
2022/10/29 07:34:41;;;;;;;24.08;8.23;;;17.30;99.90;;;;;;5019866;28;20026;-75
2022/10/29 07:37:07;;;;;;;27.30;10.27;;;17.40;99.90;;;;;;5015506;28;20025;-75
2022/10/29 07:39:33;;;;;;;27.27;8.77;;;17.40;99.90;;;;;;5034726;28;20104;-75
2022/10/29 07:41:59;;;;;;;16.40;8.93;;;17.50;99.90;;;;;;5016694;28;20019;-75
2022/10/29 07:44:24;;;;;;;25.90;9.48;;;17.50;99.90;;;;;;5030286;28;20021;-75
2022/10/29 07:46:50;;;;;;;29.98;10.48;;;17.50;99.90;;;;;;5013236;28;20014;-75
2022/10/29 07:49:16;;;;;;;16.98;8.15;;;17.60;99.90;;;;;;5012287;28;20022;-75
2022/10/29 07:51:42;;;;;;;21.58;8.73;;;17.70;99.90;;;;;;5016349;28;20026;-74
2022/10/29 07:54:08;;;;;;;33.72;9.38;;;17.70;99.90;;;;;;5011793;28;20030;-74
2022/10/29 07:56:33;;;;;;;32.03;9.52;;;17.80;99.90;;;;;;5021922;28;20022;-74
2022/10/29 07:58:59;;;;;;;17.58;7.50;;;17.80;99.90;;;;;;5010794;28;20018;-74
2022/10/29 08:01:25;;;;;;;26.83;9.50;;;17.90;99.90;;;;;;5014756;28;20033;-75
2022/10/29 08:03:51;;;;;;;24.80;10.07;;;18.00;99.90;;;;;;5009204;28;20105;-75
2022/10/29 08:06:17;;;;;;;13.80;7.68;;;18.00;99.90;;;;;;5015178;28;20022;-75
2022/10/29 08:08:43;;;;;;;21.83;8.75;;;18.10;99.90;;;;;;5025380;28;20037;-74
2022/10/29 08:11:09;;;;;;;25.65;8.38;;;18.10;99.90;;;;;;5023503;28;20061;-75
2022/10/29 08:13:34;;;;;;;14.45;7.93;;;18.30;99.90;;;;;;5027254;28;20046;-75
2022/10/29 08:16:00;;;;;;;20.30;8.90;;;18.30;99.90;;;;;;5017561;28;20451;-74
2022/10/29 08:18:26;;;;;;;24.83;8.05;;;18.40;99.90;;;;;;5014590;28;20413;-75
2022/10/29 08:20:52;;;;;;;21.05;8.82;;;18.40;99.90;;;;;;5012639;28;20045;-74
2022/10/29 08:23:18;;;;;;;28.92;8.60;;;18.50;99.90;;;;;;5018213;28;20034;-74
2022/10/29 08:25:44;;;;;;;20.15;8.00;;;18.50;99.90;;;;;;5017696;28;20026;-74
2022/10/29 08:28:12;;;;;;;24.17;9.80;;;18.50;99.90;;;;;;5013343;28;20030;-74
2022/10/29 08:30:38;;;;;;;27.33;8.52;;;18.60;99.90;;;;;;5008946;28;20054;-75
2022/10/29 08:33:04;;;;;;;24.92;8.48;;;18.60;99.90;;;;;;5013472;28;20022;-74
2022/10/29 08:35:31;;;;;;;23.73;8.77;;;18.70;99.90;;;;;;5014598;28;20026;-75
2022/10/29 08:37:57;;;;;;;25.60;9.02;;;18.80;99.90;;;;;;5014014;28;20444;-74
2022/10/29 08:40:36;;;;;;;29.27;8.07;;;18.90;99.90;;;;;;5020119;28;20030;-74
2022/10/29 08:43:11;;;;;;;22.48;7.75;;;18.90;99.90;;;;;;5008042;28;20026;-75
2022/10/29 08:45:49;;;;;;;16.83;7.43;;;19.00;99.90;;;;;;5027660;28;20026;-74
2022/10/29 08:48:20;;;;;;;17.02;7.60;;;19.00;99.90;;;;;;5008892;28;20398;-75
2022/10/29 08:50:51;;;;;;;21.25;8.43;;;19.00;99.90;;;;;;5016048;28;20169;-75
2022/10/29 08:53:22;;;;;;;20.88;8.50;;;19.00;99.90;;;;;;5009837;28;20057;-75
2022/10/29 08:55:48;;;;;;;22.48;9.30;;;19.10;99.90;;;;;;5015451;28;20028;-75
2022/10/29 08:58:33;;;;;;;23.63;8.38;;;19.10;99.90;;;;;;5014648;28;20043;-74
2022/10/29 09:00:59;;;;;;;27.08;9.73;;;19.10;99.90;;;;;;5021638;28;20034;-74
2022/10/29 09:03:29;;;;;;;16.95;7.88;;;19.20;99.90;;;;;;5012368;28;20063;-75
2022/10/29 09:06:02;;;;;;;20.85;8.10;;;19.30;99.90;;;;;;5033219;28;20129;-75
2022/10/29 09:08:43;;;;;;;27.00;9.20;;;19.40;99.90;;;;;;5007766;28;20029;-73
2022/10/29 09:11:47;;;;;;;24.63;8.27;;;19.40;99.90;;;;;;5019852;28;20038;-74
2022/10/29 09:14:37;;;;;;;18.73;8.05;;;19.50;99.90;;;;;;5016643;28;20099;-73
2022/10/29 09:17:39;;;;;;;19.38;8.38;;;19.50;99.90;;;;;;5027947;28;20018;-74
2022/10/29 09:20:17;;;;;;;26.38;8.63;;;19.60;99.90;;;;;;5038543;28;20025;-72
2022/10/29 09:22:44;;;;;;;25.00;8.23;;;19.60;99.90;;;;;;5027331;28;20105;-72
2022/10/29 09:25:31;;;;;;;30.13;8.43;;;19.70;99.90;;;;;;5026486;28;20033;-72
2022/10/29 09:28:23;;;;;;;16.60;7.38;;;19.80;99.90;;;;;;5022776;28;20364;-72
2022/10/29 09:31:14;;;;;;;26.75;9.38;;;19.70;99.90;;;;;;5032170;28;20034;-72
2022/10/29 09:33:41;;;;;;;18.30;8.02;;;19.70;99.90;;;;;;5029235;28;20022;-72
2022/10/29 09:36:20;;;;;;;23.92;8.07;;;19.80;99.90;;;;;;5021957;28;20385;-73
2022/10/29 09:39:09;;;;;;;23.83;8.15;;;19.80;99.90;;;;;;5009432;28;20096;-73
2022/10/29 09:41:36;;;;;;;18.25;7.88;;;19.90;99.90;;;;;;5015758;28;20030;-74
2022/10/29 09:44:34;;;;;;;21.98;9.32;;;19.90;99.90;;;;;;5032937;28;20034;-72
2022/10/29 09:47:41;;;;;;;26.55;7.63;;;19.90;99.90;;;;;;5012949;28;20044;-74
2022/10/29 09:50:31;;;;;;;16.35;8.45;;;20.00;99.90;;;;;;5031728;28;20056;-72
2022/10/29 09:52:58;;;;;;;27.23;8.10;;;20.10;99.90;;;;;;5015609;28;20602;-73
2022/10/29 09:55:48;;;;;;;23.65;7.72;;;20.10;99.90;;;;;;5024988;28;20045;-73
2022/10/29 09:58:26;;;;;;;16.10;7.37;;;20.10;99.90;;;;;;5013843;28;20026;-73
2022/10/29 10:00:52;;;;;;;22.50;8.40;;;20.20;99.90;;;;;;5030652;28;20026;-72
2022/10/29 10:03:29;;;;;;;20.77;7.80;;;20.20;99.90;;;;;;5010390;28;20034;-73
2022/10/29 10:05:56;;;;;;;17.90;8.45;;;20.20;99.90;;;;;;5033470;28;20113;-72
2022/10/29 10:08:22;;;;;;;22.40;9.07;;;20.30;99.90;;;;;;5016869;28;20117;-73
2022/10/29 10:10:56;;;;;;;18.63;8.30;;;20.40;99.90;;;;;;5034811;28;20060;-74
2022/10/29 10:13:32;;;;;;;20.42;9.23;;;20.40;99.90;;;;;;5024207;28;20038;-73
2022/10/29 10:16:04;;;;;;;20.95;8.77;;;20.50;99.90;;;;;;5034457;28;20548;-75
2022/10/29 10:18:29;;;;;;;23.90;8.00;;;20.50;99.90;;;;;;5021972;28;20058;-75
2022/10/29 10:21:11;;;;;;;21.15;8.00;;;20.60;99.90;;;;;;5030469;28;20403;-75
2022/10/29 10:23:51;;;;;;;24.77;8.90;;;20.60;99.90;;;;;;5018825;28;20656;-74
2022/10/29 10:26:31;;;;;;;21.52;9.18;;;20.60;99.90;;;;;;5029171;28;20441;-74
2022/10/29 10:29:14;;;;;;;23.60;8.20;;;20.50;99.90;;;;;;5017180;28;20057;-74
2022/10/29 10:31:41;;;;;;;26.80;8.18;;;20.40;99.90;;;;;;5036008;28;20034;-73
2022/10/29 10:34:15;;;;;;;21.13;8.88;;;20.50;99.90;;;;;;5016144;28;20076;-74
2022/10/29 10:36:58;;;;;;;20.95;8.48;;;20.50;99.90;;;;;;5018123;28;20022;-73
2022/10/29 10:39:36;;;;;;;24.58;7.93;;;20.60;99.90;;;;;;5024914;28;20018;-75
2022/10/29 10:42:05;;;;;;;18.00;7.53;;;20.70;99.90;;;;;;5018424;28;20022;-74
2022/10/29 10:44:32;;;;;;;14.57;7.55;;;20.60;99.90;;;;;;5019216;28;20024;-75
2022/10/29 10:47:05;;;;;;;18.42;8.27;;;20.70;99.90;;;;;;5015469;28;20100;-74
2022/10/29 10:49:33;;;;;;;17.52;8.20;;;20.70;99.90;;;;;;5035295;28;20040;-75
2022/10/29 10:52:02;;;;;;;23.75;8.23;;;20.70;99.90;;;;;;5029870;28;20026;-74
2022/10/29 10:54:28;;;;;;;21.02;7.68;;;20.60;99.90;;;;;;5025880;28;20026;-73
2022/10/29 10:57:03;;;;;;;18.25;8.15;;;20.60;99.90;;;;;;5027143;28;20108;-74
2022/10/29 10:59:41;;;;;;;15.50;8.10;;;20.70;99.90;;;;;;5023414;28;20117;-74
2022/10/29 11:02:30;;;;;;;20.30;7.88;;;20.70;99.90;;;;;;5027132;28;20486;-74
2022/10/29 11:05:17;;;;;;;20.60;8.48;;;20.70;99.90;;;;;;5014975;28;20025;-74
2022/10/29 11:07:50;;;;;;;25.10;8.45;;;20.70;99.90;;;;;;5009587;28;20035;-74
2022/10/29 11:10:19;;;;;;;23.50;8.65;;;20.70;99.90;;;;;;5031039;28;20026;-74
2022/10/29 11:12:49;;;;;;;26.60;10.10;;;20.70;99.90;;;;;;5009237;28;20046;-74
2022/10/29 11:15:32;;;;;;;23.10;8.23;;;20.70;99.90;;;;;;5031292;28;20053;-74
2022/10/29 11:18:09;;;;;;;22.42;8.65;;;20.80;99.90;;;;;;5009965;28;20094;-74
2022/10/29 11:20:37;;;;;;;22.90;8.73;;;20.90;99.90;;;;;;5030453;28;20029;-74
2022/10/29 11:23:21;;;;;;;23.42;9.50;;;20.90;99.90;;;;;;5010365;28;20030;-74
2022/10/29 11:25:57;;;;;;;18.13;8.07;;;21.10;99.90;;;;;;5016041;28;20037;-74
2022/10/29 11:28:32;;;;;;;29.67;8.50;;;21.10;99.90;;;;;;5008822;28;20032;-74
2022/10/29 11:31:07;;;;;;;26.30;8.95;;;21.10;99.90;;;;;;5021023;28;20018;-74
2022/10/29 11:34:04;;;;;;;22.17;8.60;;;21.10;99.90;;;;;;5010710;28;20478;-73
2022/10/29 11:36:39;;;;;;;21.55;8.23;;;21.10;99.90;;;;;;5015115;28;20026;-75
2022/10/29 11:39:29;;;;;;;24.27;9.07;;;21.10;99.90;;;;;;5019076;28;20363;-74
2022/10/29 11:42:00;;;;;;;21.13;8.35;;;21.10;99.90;;;;;;5014697;28;20026;-74
2022/10/29 11:44:28;;;;;;;23.50;7.78;;;21.00;99.90;;;;;;5030052;28;20466;-74
2022/10/29 11:47:32;;;;;;;20.17;8.55;;;21.10;99.90;;;;;;5014330;28;20060;-74
2022/10/29 11:49:57;;;;;;;18.48;7.93;;;21.10;99.90;;;;;;5009843;28;20106;-74
2022/10/29 11:52:55;;;;;;;18.90;7.95;;;21.20;99.90;;;;;;5012939;28;20030;-75
2022/10/29 11:55:26;;;;;;;19.25;7.90;;;21.20;99.90;;;;;;5026544;28;20390;-74
2022/10/29 11:58:01;;;;;;;22.65;7.60;;;21.20;99.90;;;;;;5021997;28;20100;-74
2022/10/29 12:00:31;;;;;;;18.58;7.43;;;21.30;99.90;;;;;;5025047;28;20029;-74
2022/10/29 12:03:27;;;;;;;26.17;8.15;;;21.30;99.90;;;;;;5019665;28;20556;-74
2022/10/29 12:06:02;;;;;;;20.50;8.40;;;21.30;99.90;;;;;;5021097;28;20057;-75
2022/10/29 12:09:13;;;;;;;19.05;8.05;;;21.40;99.90;;;;;;5017099;28;20030;-74
2022/10/29 12:11:44;;;;;;;21.45;8.55;;;21.40;99.90;;;;;;5017252;28;20037;-75
2022/10/29 12:14:16;;;;;;;19.48;8.05;;;21.50;99.90;;;;;;5019240;28;20025;-74
2022/10/29 12:16:49;;;;;;;20.20;8.63;;;21.60;99.90;;;;;;5013005;28;20079;-73
2022/10/29 12:19:35;;;;;;;18.23;7.45;;;21.70;99.90;;;;;;5010639;28;20022;-74
2022/10/29 12:22:25;;;;;;;23.02;8.77;;;21.70;99.90;;;;;;5012786;28;20120;-75
2022/10/29 12:25:02;;;;;;;15.10;7.68;;;22.00;99.90;;;;;;5010643;28;20030;-74
2022/10/29 12:28:17;;;;;;;19.13;7.80;;;22.00;99.90;;;;;;5011169;28;20022;-75
2022/10/29 12:31:15;;;;;;;16.05;8.32;;;22.00;99.90;;;;;;5014975;28;20406;-75
2022/10/29 12:33:55;;;;;;;15.15;7.55;;;22.00;99.90;;;;;;5012734;28;20026;-73
2022/10/29 12:36:53;;;;;;;21.50;7.67;;;22.00;99.90;;;;;;5015799;28;20037;-74
2022/10/29 12:39:31;;;;;;;22.95;8.30;;;22.20;99.90;;;;;;5021615;28;20030;-75
2022/10/29 12:42:15;;;;;;;17.63;7.35;;;22.30;99.90;;;;;;5021883;28;20085;-75
2022/10/29 12:44:59;;;;;;;15.18;8.45;;;22.30;99.90;;;;;;5020637;28;20030;-73
2022/10/29 12:47:44;;;;;;;18.13;7.80;;;22.10;99.90;;;;;;5014893;28;20040;-75
2022/10/29 12:50:39;;;;;;;18.77;7.97;;;22.00;99.90;;;;;;5018183;28;20034;-74
2022/10/29 12:53:40;;;;;;;19.13;8.60;;;21.90;99.90;;;;;;5015615;28;20022;-75
2022/10/29 12:56:08;;;;;;;20.13;7.82;;;21.80;99.90;;;;;;5027332;28;20022;-74